createdAt,value
2018-09-30T00:00:58.567Z,55.49
2018-09-30T00:01:58.556Z,55.43
2018-09-30T00:02:58.684Z,55.41
2018-09-30T00:03:58.897Z,55.41
2018-09-30T00:04:59.202Z,55.41
2018-09-30T00:05:58.664Z,55.42
2018-09-30T00:06:58.730Z,55.39
2018-09-30T00:07:58.661Z,55.43
2018-09-30T00:08:58.588Z,55.46
2018-09-30T00:09:58.648Z,55.42
2018-09-30T00:10:58.710Z,55.43
2018-09-30T00:11:58.676Z,55.47
2018-09-30T00:12:58.635Z,55.46
2018-09-30T00:13:58.523Z,55.41
2018-09-30T00:14:58.768Z,55.42
2018-09-30T00:15:59.065Z,55.48
2018-09-30T00:16:58.760Z,55.5
2018-09-30T00:17:58.907Z,55.5
2018-09-30T00:18:58.661Z,55.41
2018-09-30T00:19:58.715Z,55.49
2018-09-30T00:20:58.617Z,55.44
2018-09-30T00:21:58.705Z,55.52
2018-09-30T00:22:58.777Z,55.54
2018-09-30T00:23:58.745Z,55.48
2018-09-30T00:24:58.862Z,55.48
2018-09-30T00:25:58.671Z,55.43
2018-09-30T00:26:58.627Z,55.48
2018-09-30T00:27:58.656Z,55.41
2018-09-30T00:28:58.734Z,55.41
2018-09-30T00:29:58.891Z,55.42
2018-09-30T00:30:58.723Z,55.44
2018-09-30T00:31:58.887Z,55.43
2018-09-30T00:32:58.817Z,55.45
2018-09-30T00:33:58.891Z,55.39
2018-09-30T00:34:58.708Z,55.41
2018-09-30T00:35:58.843Z,55.41
2018-09-30T00:36:58.783Z,55.45
2018-09-30T00:37:58.944Z,55.39
2018-09-30T00:38:58.653Z,55.42
2018-09-30T00:39:58.953Z,55.44
2018-09-30T00:40:58.655Z,55.45
2018-09-30T00:41:59.048Z,55.44
2018-09-30T00:42:58.636Z,55.47
2018-09-30T00:43:58.990Z,55.46
2018-09-30T00:44:58.887Z,55.48
2018-09-30T00:45:58.685Z,55.51
2018-09-30T00:46:58.900Z,55.46
2018-09-30T00:47:58.829Z,55.48
2018-09-30T00:48:58.792Z,55.49
2018-09-30T00:49:58.556Z,55.45
2018-09-30T00:50:58.578Z,55.46
2018-09-30T00:51:58.771Z,55.48
2018-09-30T00:52:58.936Z,55.45
2018-09-30T00:53:58.520Z,55.45
2018-09-30T00:54:58.804Z,55.38
2018-09-30T00:55:58.823Z,55.42
2018-09-30T00:56:58.980Z,55.4
2018-09-30T00:57:58.584Z,55.5
2018-09-30T00:58:58.711Z,55.46
2018-09-30T00:59:58.644Z,55.48
2018-09-30T01:00:58.476Z,55.42
2018-09-30T01:01:58.589Z,55.41
2018-09-30T01:02:58.602Z,55.45
2018-09-30T01:03:58.915Z,55.42
2018-09-30T01:04:58.577Z,55.44
2018-09-30T01:05:58.685Z,55.44
2018-09-30T01:06:58.648Z,55.4
2018-09-30T01:07:58.894Z,55.47
2018-09-30T01:08:58.623Z,55.46
2018-09-30T01:09:58.732Z,55.48
2018-09-30T01:10:58.598Z,55.44
2018-09-30T01:11:58.990Z,55.49
2018-09-30T01:12:58.566Z,55.54
2018-09-30T01:13:58.609Z,55.46
2018-09-30T01:14:58.711Z,55.41
2018-09-30T01:15:58.806Z,55.47
2018-09-30T01:16:58.671Z,55.5
2018-09-30T01:17:58.678Z,55.55
2018-09-30T01:18:58.762Z,55.47
2018-09-30T01:19:58.603Z,55.45
2018-09-30T01:20:58.727Z,55.48
2018-09-30T01:21:58.947Z,55.5
2018-09-30T01:22:58.560Z,55.48
2018-09-30T01:23:58.585Z,55.49
2018-09-30T01:24:58.535Z,55.52
2018-09-30T01:25:58.634Z,55.51
2018-09-30T01:26:58.718Z,55.48
2018-09-30T01:27:58.602Z,55.5
2018-09-30T01:28:58.891Z,55.52
2018-09-30T01:29:58.516Z,55.51
2018-09-30T01:30:58.819Z,55.54
2018-09-30T01:31:58.945Z,55.58
2018-09-30T01:32:58.607Z,55.51
2018-09-30T01:33:58.653Z,55.49
2018-09-30T01:34:58.656Z,55.51
2018-09-30T01:35:58.565Z,55.49
2018-09-30T01:36:58.563Z,55.53
2018-09-30T01:37:59.256Z,55.54
2018-09-30T01:38:58.700Z,55.53
2018-09-30T01:39:59.272Z,55.5
2018-09-30T01:40:58.751Z,55.51
2018-09-30T01:41:58.892Z,55.48
2018-09-30T01:42:58.632Z,55.54
2018-09-30T01:43:58.538Z,55.49
2018-09-30T01:44:58.802Z,55.48
2018-09-30T01:45:58.758Z,55.47
2018-09-30T01:46:59.058Z,55.53
2018-09-30T01:47:58.662Z,55.46
2018-09-30T01:48:58.552Z,55.5
2018-09-30T01:49:58.574Z,55.48
2018-09-30T01:50:58.775Z,55.53
2018-09-30T01:51:58.595Z,55.45
2018-09-30T01:52:59.192Z,55.47
2018-09-30T01:53:58.651Z,55.49
2018-09-30T01:54:58.719Z,55.46
2018-09-30T01:55:58.762Z,55.45
2018-09-30T01:56:59.625Z,55.48
2018-09-30T01:57:58.858Z,55.41
2018-09-30T01:58:58.598Z,55.48
2018-09-30T01:59:58.955Z,55.46
2018-09-30T02:00:58.549Z,55.47
2018-09-30T02:01:58.867Z,55.47
2018-09-30T02:02:58.836Z,55.5
2018-09-30T02:03:58.791Z,55.56
2018-09-30T02:04:58.675Z,55.47
2018-09-30T02:05:58.700Z,55.5
2018-09-30T02:06:58.657Z,55.52
2018-09-30T02:07:58.602Z,55.55
2018-09-30T02:08:58.589Z,55.51
2018-09-30T02:09:58.696Z,55.55
2018-09-30T02:10:58.572Z,55.42
2018-09-30T02:11:58.629Z,55.47
2018-09-30T02:12:58.828Z,55.48
2018-09-30T02:13:58.602Z,55.48
2018-09-30T02:14:58.640Z,55.46
2018-09-30T02:15:58.791Z,55.43
2018-09-30T02:16:58.669Z,55.45
2018-09-30T02:17:58.953Z,55.49
2018-09-30T02:18:58.642Z,55.51
2018-09-30T02:19:58.820Z,55.56
2018-09-30T02:20:58.763Z,55.49
2018-09-30T02:21:58.668Z,55.51
2018-09-30T02:22:58.669Z,55.59
2018-09-30T02:23:58.703Z,55.5
2018-09-30T02:24:58.566Z,55.51
2018-09-30T02:25:58.717Z,55.48
2018-09-30T02:26:58.628Z,55.49
2018-09-30T02:27:58.797Z,55.52
2018-09-30T02:28:58.495Z,55.51
2018-09-30T02:29:58.728Z,55.51
2018-09-30T02:30:58.561Z,55.56
2018-09-30T02:31:58.652Z,55.46
2018-09-30T02:32:58.505Z,55.44
2018-09-30T02:33:58.630Z,55.45
2018-09-30T02:34:58.644Z,55.51
2018-09-30T02:35:58.780Z,55.52
2018-09-30T02:36:59.265Z,55.45
2018-09-30T02:37:58.548Z,55.51
2018-09-30T02:38:58.614Z,55.49
2018-09-30T02:39:58.650Z,55.53
2018-09-30T02:40:58.817Z,55.5
2018-09-30T02:41:58.648Z,55.5
2018-09-30T02:42:58.698Z,55.53
2018-09-30T02:43:58.622Z,55.47
2018-09-30T02:44:58.538Z,55.52
2018-09-30T02:45:58.558Z,55.44
2018-09-30T02:46:58.785Z,55.52
2018-09-30T02:47:58.609Z,55.53
2018-09-30T02:48:58.611Z,55.49
2018-09-30T02:49:58.751Z,55.5
2018-09-30T02:50:58.445Z,55.47
2018-09-30T02:51:58.681Z,55.46
2018-09-30T02:52:58.576Z,55.51
2018-09-30T02:53:58.675Z,55.53
2018-09-30T02:54:58.617Z,55.54
2018-09-30T02:55:58.689Z,55.49
2018-09-30T02:56:58.570Z,55.45
2018-09-30T02:57:58.986Z,55.5
2018-09-30T02:58:58.622Z,55.46
2018-09-30T02:59:58.548Z,55.48
2018-09-30T03:00:58.468Z,55.48
2018-09-30T03:01:58.571Z,55.5
2018-09-30T03:02:58.657Z,55.53
2018-09-30T03:03:58.521Z,55.46
2018-09-30T03:04:58.698Z,55.47
2018-09-30T03:05:58.782Z,55.45
2018-09-30T03:06:58.500Z,55.5
2018-09-30T03:07:58.575Z,55.48
2018-09-30T03:08:58.834Z,55.53
2018-09-30T03:09:58.533Z,55.47
2018-09-30T03:10:58.875Z,55.58
2018-09-30T03:11:58.953Z,55.5
2018-09-30T03:12:58.697Z,55.52
2018-09-30T03:13:58.855Z,55.53
2018-09-30T03:14:58.476Z,55.58
2018-09-30T03:15:58.629Z,55.51
2018-09-30T03:16:58.777Z,55.49
2018-09-30T03:17:58.549Z,55.51
2018-09-30T03:18:58.770Z,55.48
2018-09-30T03:19:58.876Z,55.52
2018-09-30T03:20:58.562Z,55.55
2018-09-30T03:21:58.720Z,55.49
2018-09-30T03:22:58.748Z,55.46
2018-09-30T03:23:58.798Z,55.48
2018-09-30T03:24:58.720Z,55.51
2018-09-30T03:25:58.707Z,55.46
2018-09-30T03:26:58.735Z,55.46
2018-09-30T03:27:58.467Z,55.47
2018-09-30T03:28:58.562Z,55.5
2018-09-30T03:29:58.864Z,55.49
2018-09-30T03:30:58.582Z,55.55
2018-09-30T03:31:58.553Z,55.48
2018-09-30T03:32:58.583Z,55.51
2018-09-30T03:33:58.508Z,55.48
2018-09-30T03:34:58.553Z,55.49
2018-09-30T03:35:58.648Z,55.55
2018-09-30T03:36:58.709Z,55.5
2018-09-30T03:37:58.530Z,55.52
2018-09-30T03:38:58.616Z,55.56
2018-09-30T03:39:58.738Z,55.55
2018-09-30T03:40:58.717Z,55.56
2018-09-30T03:41:58.818Z,55.6
2018-09-30T03:42:58.646Z,55.51
2018-09-30T03:43:58.816Z,55.55
2018-09-30T03:44:58.551Z,55.56
2018-09-30T03:45:58.789Z,55.52
2018-09-30T03:46:58.627Z,55.48
2018-09-30T03:47:58.584Z,55.5
2018-09-30T03:48:58.541Z,55.51
2018-09-30T03:49:58.492Z,55.5
2018-09-30T03:50:58.620Z,55.51
2018-09-30T03:51:58.628Z,55.48
2018-09-30T03:52:58.479Z,55.54
2018-09-30T03:53:58.513Z,55.54
2018-09-30T03:54:58.727Z,55.54
2018-09-30T03:55:58.920Z,55.63
2018-09-30T03:56:58.592Z,55.51
2018-09-30T03:57:58.915Z,55.53
2018-09-30T03:58:58.511Z,55.54
2018-09-30T03:59:58.504Z,55.55
2018-09-30T04:00:58.610Z,55.49
2018-09-30T04:01:58.495Z,55.57
2018-09-30T04:02:58.562Z,55.56
2018-09-30T04:03:58.574Z,55.55
2018-09-30T04:04:58.592Z,55.5
2018-09-30T04:05:58.480Z,55.48
2018-09-30T04:06:58.424Z,55.53
2018-09-30T04:07:58.674Z,55.56
2018-09-30T04:08:58.528Z,55.47
2018-09-30T04:09:58.739Z,55.48
2018-09-30T04:10:59.099Z,55.51
2018-09-30T04:11:58.566Z,55.53
2018-09-30T04:12:58.642Z,55.53
2018-09-30T04:13:58.690Z,55.55
2018-09-30T04:14:58.523Z,55.53
2018-09-30T04:15:58.558Z,55.52
2018-09-30T04:16:58.913Z,55.51
2018-09-30T04:17:58.905Z,55.49
2018-09-30T04:18:58.868Z,55.49
2018-09-30T04:19:58.553Z,55.47
2018-09-30T04:20:58.441Z,55.52
2018-09-30T04:21:58.670Z,55.48
2018-09-30T04:22:58.853Z,55.5
2018-09-30T04:23:58.528Z,55.52
2018-09-30T04:24:58.920Z,55.5
2018-09-30T04:25:58.651Z,55.51
2018-09-30T04:26:58.632Z,55.49
2018-09-30T04:27:58.619Z,55.52
2018-09-30T04:28:58.638Z,55.5
2018-09-30T04:29:58.681Z,55.46
2018-09-30T04:30:58.574Z,55.55
2018-09-30T04:31:58.582Z,55.56
2018-09-30T04:32:58.595Z,55.51
2018-09-30T04:33:58.706Z,55.49
2018-09-30T04:34:58.660Z,55.5
2018-09-30T04:35:58.556Z,55.5
2018-09-30T04:36:58.532Z,55.46
2018-09-30T04:37:58.571Z,55.49
2018-09-30T04:38:58.617Z,55.47
2018-09-30T04:39:58.823Z,55.53
2018-09-30T04:40:58.540Z,55.49
2018-09-30T04:41:58.576Z,55.55
2018-09-30T04:42:58.689Z,55.49
2018-09-30T04:43:58.484Z,55.49
2018-09-30T04:44:58.632Z,55.55
2018-09-30T04:45:58.617Z,55.45
2018-09-30T04:46:58.778Z,55.49
2018-09-30T04:47:58.580Z,55.48
2018-09-30T04:48:58.453Z,55.45
2018-09-30T04:49:58.865Z,55.45
2018-09-30T04:50:58.398Z,55.51
2018-09-30T04:51:58.545Z,55.49
2018-09-30T04:52:58.913Z,55.46
2018-09-30T04:53:58.582Z,55.49
2018-09-30T04:54:58.807Z,55.48
2018-09-30T04:55:58.611Z,55.44
2018-09-30T04:56:58.565Z,55.45
2018-09-30T04:57:58.575Z,55.5
2018-09-30T04:58:58.502Z,55.41
2018-09-30T04:59:58.607Z,55.48
2018-09-30T05:00:58.897Z,55.46
2018-09-30T05:01:58.527Z,55.45
2018-09-30T05:02:58.897Z,55.43
2018-09-30T05:03:58.926Z,55.48
2018-09-30T05:04:58.447Z,55.49
2018-09-30T05:05:58.588Z,55.46
2018-09-30T05:06:58.573Z,55.42
2018-09-30T05:07:58.395Z,55.44
2018-09-30T05:08:58.599Z,55.43
2018-09-30T05:09:58.525Z,55.41
2018-09-30T05:10:58.537Z,55.43
2018-09-30T05:11:58.688Z,55.51
2018-09-30T05:12:58.472Z,55.45
2018-09-30T05:13:58.532Z,55.52
2018-09-30T05:14:58.496Z,55.46
2018-09-30T05:15:58.708Z,55.43
2018-09-30T05:16:58.452Z,55.39
2018-09-30T05:17:58.542Z,55.43
2018-09-30T05:18:58.615Z,55.42
2018-09-30T05:19:58.481Z,55.42
2018-09-30T05:20:58.644Z,55.45
2018-09-30T05:21:58.515Z,55.5
2018-09-30T05:22:58.490Z,55.37
2018-09-30T05:23:58.463Z,55.43
2018-09-30T05:24:58.499Z,55.49
2018-09-30T05:25:58.565Z,55.38
2018-09-30T05:26:58.501Z,55.38
2018-09-30T05:27:58.491Z,55.44
2018-09-30T05:28:58.969Z,55.37
2018-09-30T05:29:58.582Z,55.4
2018-09-30T05:30:58.657Z,55.46
2018-09-30T05:31:58.535Z,55.44
2018-09-30T05:32:58.642Z,55.38
2018-09-30T05:33:59.020Z,55.39
2018-09-30T05:34:58.816Z,55.43
2018-09-30T05:35:58.504Z,55.42
2018-09-30T05:36:58.667Z,55.36
2018-09-30T05:37:58.734Z,55.37
2018-09-30T05:38:58.638Z,55.37
2018-09-30T05:39:58.541Z,55.35
2018-09-30T05:40:58.523Z,55.39
2018-09-30T05:41:58.442Z,55.37
2018-09-30T05:42:58.576Z,55.42
2018-09-30T05:43:58.575Z,55.41
2018-09-30T05:44:58.526Z,55.47
2018-09-30T05:45:58.754Z,55.44
2018-09-30T05:46:58.533Z,55.43
2018-09-30T05:47:58.863Z,55.42
2018-09-30T05:48:58.701Z,55.37
2018-09-30T05:49:58.618Z,55.43
2018-09-30T05:50:58.599Z,55.44
2018-09-30T05:51:58.846Z,55.34
2018-09-30T05:52:58.543Z,55.38
2018-09-30T05:53:58.674Z,55.39
2018-09-30T05:54:58.528Z,55.38
2018-09-30T05:55:58.583Z,55.37
2018-09-30T05:56:58.760Z,55.42
2018-09-30T05:57:59.028Z,55.35
2018-09-30T05:58:58.724Z,55.43
2018-09-30T05:59:58.874Z,55.37
2018-09-30T06:00:58.547Z,55.35
2018-09-30T06:01:58.518Z,55.36
2018-09-30T06:02:58.580Z,55.43
2018-09-30T06:03:58.732Z,55.43
2018-09-30T06:04:58.543Z,55.39
2018-09-30T06:05:58.576Z,55.41
2018-09-30T06:06:59.002Z,55.35
2018-09-30T06:07:58.756Z,55.38
2018-09-30T06:08:58.733Z,55.42
2018-09-30T06:09:58.567Z,55.47
2018-09-30T06:10:58.656Z,55.43
2018-09-30T06:11:58.792Z,55.42
2018-09-30T06:12:58.619Z,55.41
2018-09-30T06:13:58.708Z,55.39
2018-09-30T06:14:58.623Z,55.42
2018-09-30T06:15:58.549Z,55.46
2018-09-30T06:16:58.680Z,55.39
2018-09-30T06:17:58.601Z,55.41
2018-09-30T06:18:58.739Z,55.39
2018-09-30T06:19:58.448Z,55.43
2018-09-30T06:20:58.372Z,55.37
2018-09-30T06:21:58.371Z,55.38
2018-09-30T06:22:58.735Z,55.42
2018-09-30T06:23:58.850Z,55.38
2018-09-30T06:24:58.570Z,55.46
2018-09-30T06:25:58.705Z,55.44
2018-09-30T06:26:58.587Z,55.35
2018-09-30T06:27:58.741Z,55.39
2018-09-30T06:28:58.472Z,55.35
2018-09-30T06:29:58.423Z,55.39
2018-09-30T06:30:58.589Z,55.41
2018-09-30T06:31:58.645Z,55.45
2018-09-30T06:32:58.794Z,55.44
2018-09-30T06:33:58.503Z,55.39
2018-09-30T06:34:58.485Z,55.38
2018-09-30T06:35:58.546Z,55.37
2018-09-30T06:36:58.904Z,55.37
2018-09-30T06:37:58.963Z,55.35
2018-09-30T06:38:58.589Z,55.32
2018-09-30T06:39:58.652Z,55.37
2018-09-30T06:40:58.462Z,55.42
2018-09-30T06:41:58.568Z,55.33
2018-09-30T06:42:58.488Z,55.44
2018-09-30T06:43:58.607Z,55.43
2018-09-30T06:44:58.861Z,55.42
2018-09-30T06:45:58.548Z,55.39
2018-09-30T06:46:58.424Z,55.44
2018-09-30T06:47:58.829Z,55.41
2018-09-30T06:48:58.928Z,55.4
2018-09-30T06:49:58.556Z,55.44
2018-09-30T06:50:58.823Z,55.42
2018-09-30T06:51:58.471Z,55.51
2018-09-30T06:52:58.851Z,55.45
2018-09-30T06:53:58.519Z,55.39
2018-09-30T06:54:58.504Z,55.43
2018-09-30T06:55:58.488Z,55.44
2018-09-30T06:56:58.491Z,55.44
2018-09-30T06:57:58.837Z,55.37
2018-09-30T06:58:58.617Z,55.39
2018-09-30T06:59:58.561Z,55.46
2018-09-30T07:00:58.585Z,55.44
2018-09-30T07:01:58.316Z,55.38
2018-09-30T07:02:58.649Z,55.41
2018-09-30T07:03:58.572Z,55.35
2018-09-30T07:04:59.080Z,55.35
2018-09-30T07:05:58.638Z,55.37
2018-09-30T07:06:58.413Z,55.36
2018-09-30T07:07:58.526Z,55.42
2018-09-30T07:08:58.498Z,55.39
2018-09-30T07:09:58.600Z,55.39
2018-09-30T07:10:58.805Z,55.41
2018-09-30T07:11:58.607Z,55.33
2018-09-30T07:12:58.589Z,55.4
2018-09-30T07:13:58.517Z,55.43
2018-09-30T07:14:58.703Z,55.4
2018-09-30T07:15:58.862Z,55.37
2018-09-30T07:16:58.778Z,55.35
2018-09-30T07:17:58.412Z,55.37
2018-09-30T07:18:58.791Z,55.41
2018-09-30T07:19:58.571Z,55.38
2018-09-30T07:20:58.426Z,55.42
2018-09-30T07:21:58.571Z,55.4
2018-09-30T07:22:58.700Z,55.36
2018-09-30T07:23:58.688Z,55.42
2018-09-30T07:24:58.530Z,55.39
2018-09-30T07:25:58.666Z,55.39
2018-09-30T07:26:58.417Z,55.36
2018-09-30T07:27:58.618Z,55.41
2018-09-30T07:28:58.510Z,55.42
2018-09-30T07:29:59.546Z,55.38
2018-09-30T07:30:58.453Z,55.37
2018-09-30T07:31:58.661Z,55.41
2018-09-30T07:32:58.885Z,55.37
2018-09-30T07:33:58.526Z,55.38
2018-09-30T07:34:58.636Z,55.39
2018-09-30T07:35:58.588Z,55.41
2018-09-30T07:36:58.513Z,55.44
2018-09-30T07:37:58.556Z,55.43
2018-09-30T07:38:58.772Z,55.41
2018-09-30T07:39:58.616Z,55.38
2018-09-30T07:40:58.701Z,55.45
2018-09-30T07:41:58.806Z,55.4
2018-09-30T07:42:58.419Z,55.41
2018-09-30T07:43:58.633Z,55.4
2018-09-30T07:44:58.842Z,55.4
2018-09-30T07:45:58.550Z,55.37
2018-09-30T07:46:58.590Z,55.47
2018-09-30T07:47:58.567Z,55.43
2018-09-30T07:48:58.403Z,55.45
2018-09-30T07:49:58.499Z,55.36
2018-09-30T07:50:58.484Z,55.36
2018-09-30T07:51:58.493Z,55.41
2018-09-30T07:52:58.815Z,55.37
2018-09-30T07:53:58.670Z,55.36
2018-09-30T07:54:58.512Z,55.44
2018-09-30T07:55:58.587Z,55.42
2018-09-30T07:56:58.633Z,55.34
2018-09-30T07:57:58.291Z,55.4
2018-09-30T07:58:58.507Z,55.36
2018-09-30T07:59:58.427Z,55.41
2018-09-30T08:00:58.378Z,55.47
2018-09-30T08:01:58.562Z,55.39
2018-09-30T08:02:58.552Z,55.39
2018-09-30T08:03:58.699Z,55.37
2018-09-30T08:04:58.335Z,55.41
2018-09-30T08:05:58.345Z,55.37
2018-09-30T08:06:58.543Z,55.33
2018-09-30T08:07:58.509Z,55.36
2018-09-30T08:08:58.369Z,55.38
2018-09-30T08:09:58.479Z,55.35
2018-09-30T08:10:58.527Z,55.36
2018-09-30T08:11:58.558Z,55.35
2018-09-30T08:12:58.398Z,55.36
2018-09-30T08:13:58.548Z,55.32
2018-09-30T08:14:58.566Z,55.37
2018-09-30T08:15:58.500Z,55.37
2018-09-30T08:16:58.867Z,55.38
2018-09-30T08:17:58.949Z,55.43
2018-09-30T08:18:58.564Z,55.45
2018-09-30T08:19:58.470Z,55.41
2018-09-30T08:20:58.295Z,55.38
2018-09-30T08:21:58.444Z,55.39
2018-09-30T08:22:58.587Z,55.4
2018-09-30T08:23:58.688Z,55.47
2018-09-30T08:24:58.441Z,55.41
2018-09-30T08:25:58.598Z,55.45
2018-09-30T08:26:59.209Z,55.44
2018-09-30T08:27:58.392Z,55.5
2018-09-30T08:28:58.462Z,55.45
2018-09-30T08:29:58.372Z,55.41
2018-09-30T08:30:58.415Z,55.37
2018-09-30T08:31:58.639Z,55.37
2018-09-30T08:32:58.571Z,55.29
2018-09-30T08:33:58.678Z,55.31
2018-09-30T08:34:58.771Z,55.35
2018-09-30T08:35:58.679Z,55.34
2018-09-30T08:36:58.778Z,55.33
2018-09-30T08:37:58.600Z,55.31
2018-09-30T08:38:58.592Z,55.37
2018-09-30T08:39:58.971Z,55.42
2018-09-30T08:40:58.628Z,55.43
2018-09-30T08:41:58.471Z,55.41
2018-09-30T08:42:58.587Z,55.42
2018-09-30T08:43:58.985Z,55.48
2018-09-30T08:44:58.389Z,55.39
2018-09-30T08:45:58.470Z,55.38
2018-09-30T08:46:58.540Z,55.41
2018-09-30T08:47:58.632Z,55.42
2018-09-30T08:48:58.497Z,55.47
2018-09-30T08:49:58.624Z,55.49
2018-09-30T08:50:58.485Z,55.41
2018-09-30T08:51:58.470Z,55.45
2018-09-30T08:52:58.675Z,55.46
2018-09-30T08:53:58.816Z,55.41
2018-09-30T08:54:58.602Z,55.46
2018-09-30T08:55:58.952Z,55.45
2018-09-30T08:56:58.559Z,55.46
2018-09-30T08:57:58.289Z,55.42
2018-09-30T08:58:58.542Z,55.45
2018-09-30T08:59:58.512Z,55.49
2018-09-30T09:00:58.294Z,55.45
2018-09-30T09:01:58.330Z,55.43
2018-09-30T09:02:58.491Z,55.46
2018-09-30T09:03:58.383Z,55.43
2018-09-30T09:04:58.684Z,55.37
2018-09-30T09:05:58.814Z,55.42
2018-09-30T09:06:58.270Z,55.41
2018-09-30T09:07:58.510Z,55.45
2018-09-30T09:08:58.730Z,55.37
2018-09-30T09:09:58.837Z,55.42
2018-09-30T09:10:58.531Z,55.44
2018-09-30T09:11:58.625Z,55.51
2018-09-30T09:12:58.930Z,55.46
2018-09-30T09:13:58.540Z,55.41
2018-09-30T09:14:58.555Z,55.44
2018-09-30T09:15:58.464Z,55.44
2018-09-30T09:16:58.659Z,55.42
2018-09-30T09:17:58.573Z,55.49
2018-09-30T09:18:58.553Z,55.45
2018-09-30T09:19:58.550Z,55.53
2018-09-30T09:20:58.517Z,55.46
2018-09-30T09:21:58.496Z,55.51
2018-09-30T09:22:58.697Z,55.66
2018-09-30T09:23:58.536Z,55.56
2018-09-30T09:24:59.057Z,55.6
2018-09-30T09:25:58.467Z,55.55
2018-09-30T09:26:58.352Z,55.46
2018-09-30T09:27:58.603Z,55.74
2018-09-30T09:28:58.235Z,55.67
2018-09-30T09:29:58.262Z,55.63
2018-09-30T09:30:58.366Z,55.58
2018-09-30T09:31:58.530Z,55.55
2018-09-30T09:32:58.394Z,55.52
2018-09-30T09:33:58.506Z,55.39
2018-09-30T09:34:58.597Z,55.33
2018-09-30T09:35:58.483Z,55.51
2018-09-30T09:36:58.813Z,55.45
2018-09-30T09:37:58.379Z,55.42
2018-09-30T09:38:58.510Z,55.43
2018-09-30T09:39:58.980Z,55.53
2018-09-30T09:40:58.491Z,55.46
2018-09-30T09:41:58.452Z,55.48
2018-09-30T09:42:58.540Z,55.64
2018-09-30T09:43:58.936Z,55.52
2018-09-30T09:44:58.300Z,55.46
2018-09-30T09:45:58.563Z,55.49
2018-09-30T09:46:58.883Z,55.51
2018-09-30T09:47:58.685Z,55.58
2018-09-30T09:48:58.560Z,55.47
2018-09-30T09:49:58.442Z,55.52
2018-09-30T09:50:58.932Z,55.61
2018-09-30T09:51:58.635Z,55.73
2018-09-30T09:52:58.352Z,55.68
2018-09-30T09:53:58.714Z,55.66
2018-09-30T09:54:58.436Z,55.65
2018-09-30T09:55:58.527Z,55.74
2018-09-30T09:56:58.297Z,55.6
2018-09-30T09:57:58.762Z,55.59
2018-09-30T09:58:59.093Z,55.58
2018-09-30T09:59:58.561Z,55.56
2018-09-30T10:00:58.300Z,55.6
2018-09-30T10:01:58.616Z,55.57
2018-09-30T10:02:58.506Z,55.58
2018-09-30T10:03:58.543Z,55.5
2018-09-30T10:04:58.599Z,55.43
2018-09-30T10:05:58.521Z,55.39
2018-09-30T10:06:58.521Z,55.34
2018-09-30T10:07:58.419Z,55.4
2018-09-30T10:08:58.347Z,55.45
2018-09-30T10:09:58.577Z,55.48
2018-09-30T10:10:58.507Z,55.43
2018-09-30T10:11:58.583Z,55.55
2018-09-30T10:12:58.667Z,55.47
2018-09-30T10:13:58.350Z,55.59
2018-09-30T10:14:58.688Z,55.59
2018-09-30T10:15:58.530Z,55.53
2018-09-30T10:16:58.631Z,55.49
2018-09-30T10:17:58.318Z,55.55
2018-09-30T10:18:58.370Z,55.48
2018-09-30T10:19:58.372Z,55.54
2018-09-30T10:20:58.604Z,55.6
2018-09-30T10:21:58.901Z,55.51
2018-09-30T10:22:58.336Z,55.63
2018-09-30T10:23:58.861Z,55.54
2018-09-30T10:24:58.356Z,55.66
2018-09-30T10:25:58.342Z,55.69
2018-09-30T10:26:58.389Z,55.69
2018-09-30T10:27:58.272Z,55.76
2018-09-30T10:28:58.383Z,55.78
2018-09-30T10:29:58.593Z,55.79
2018-09-30T10:30:58.602Z,55.79
2018-09-30T10:31:58.367Z,55.78
2018-09-30T10:32:58.402Z,55.66
2018-09-30T10:33:58.354Z,55.79
2018-09-30T10:34:58.832Z,55.73
2018-09-30T10:35:58.554Z,55.72
2018-09-30T10:36:58.588Z,55.8
2018-09-30T10:37:58.652Z,55.75
2018-09-30T10:38:58.707Z,55.75
2018-09-30T10:39:58.954Z,55.79
2018-09-30T10:40:58.271Z,55.87
2018-09-30T10:41:58.835Z,55.84
2018-09-30T10:42:58.341Z,55.86
2018-09-30T10:43:58.377Z,55.93
2018-09-30T10:44:58.286Z,55.89
2018-09-30T10:45:58.492Z,55.86
2018-09-30T10:46:58.842Z,55.88
2018-09-30T10:47:58.436Z,55.81
2018-09-30T10:48:58.416Z,55.63
2018-09-30T10:49:58.455Z,55.57
2018-09-30T10:50:58.547Z,55.65
2018-09-30T10:51:58.375Z,55.5
2018-09-30T10:52:58.352Z,55.36
2018-09-30T10:53:58.278Z,55.27
2018-09-30T10:54:58.520Z,55.29
2018-09-30T10:55:58.317Z,55.27
2018-09-30T10:56:58.848Z,55.38
2018-09-30T10:57:58.492Z,55.28
2018-09-30T10:58:58.274Z,55.23
2018-09-30T10:59:58.503Z,55.33
2018-09-30T11:00:58.334Z,55.32
2018-09-30T11:01:58.541Z,55.29
2018-09-30T11:02:58.468Z,55.46
2018-09-30T11:03:58.485Z,55.4
2018-09-30T11:04:58.511Z,55.39
2018-09-30T11:05:58.602Z,55.45
2018-09-30T11:06:58.440Z,55.45
2018-09-30T11:07:58.523Z,55.44
2018-09-30T11:08:58.411Z,55.5
2018-09-30T11:09:58.514Z,55.4
2018-09-30T11:10:58.546Z,55.46
2018-09-30T11:11:58.485Z,55.44
2018-09-30T11:12:58.592Z,55.51
2018-09-30T11:13:58.704Z,55.55
2018-09-30T11:14:58.809Z,55.51
2018-09-30T11:15:58.388Z,55.49
2018-09-30T11:16:58.568Z,55.64
2018-09-30T11:17:58.267Z,55.64
2018-09-30T11:18:58.775Z,55.6
2018-09-30T11:19:58.841Z,55.69
2018-09-30T11:20:58.524Z,55.69
2018-09-30T11:21:58.584Z,55.66
2018-09-30T11:22:58.528Z,55.81
2018-09-30T11:23:58.751Z,55.74
2018-09-30T11:24:58.654Z,55.71
2018-09-30T11:25:58.383Z,55.64
2018-09-30T11:26:58.333Z,55.81
2018-09-30T11:28:18.315Z,56.18
2018-09-30T11:29:18.238Z,55.16
2018-09-30T11:30:42.662Z,55.18
2018-09-30T11:31:42.936Z,55.19
2018-09-30T11:33:06.006Z,55.05
2018-09-30T11:34:06.014Z,54.96
2018-09-30T11:35:06.025Z,54.88
2018-09-30T11:36:05.918Z,54.85
2018-09-30T11:37:05.764Z,54.85
2018-09-30T11:38:05.962Z,54.73
2018-09-30T11:39:05.934Z,54.52
2018-09-30T11:40:06.301Z,54.49
2018-09-30T11:41:05.783Z,54.43
2018-09-30T11:42:06.215Z,54.2
2018-09-30T11:43:05.745Z,54.29
2018-09-30T11:44:11.526Z,54.14
2018-09-30T11:45:11.607Z,54.14
2018-09-30T11:46:11.409Z,54.08
2018-09-30T11:47:12.383Z,54.01
2018-09-30T11:48:12.216Z,54.12
2018-09-30T11:49:12.449Z,54.13
2018-09-30T11:50:12.617Z,53.35
2018-09-30T11:51:12.233Z,53.84
2018-09-30T11:52:12.335Z,53.96
2018-09-30T11:53:12.690Z,54.07
2018-09-30T11:54:12.546Z,54.23
2018-09-30T11:55:12.675Z,54.25
2018-09-30T11:56:12.335Z,54.2
2018-09-30T11:57:12.504Z,54.22
2018-09-30T11:58:12.190Z,54.27
2018-09-30T11:59:12.360Z,54.23
2018-09-30T12:00:12.158Z,54.23
2018-09-30T12:01:12.480Z,54.27
2018-09-30T12:02:12.585Z,54.17
2018-09-30T12:03:12.383Z,54.16
2018-09-30T12:04:12.393Z,54.14
2018-09-30T12:05:12.394Z,54.07
2018-09-30T12:06:12.183Z,54.04
2018-09-30T12:07:12.255Z,54.03
2018-09-30T12:08:12.371Z,53.96
2018-09-30T12:09:12.385Z,53.87
2018-09-30T12:10:12.126Z,54
2018-09-30T12:11:12.412Z,54.03
2018-09-30T12:12:12.550Z,54.18
2018-09-30T12:13:12.304Z,54.2
2018-09-30T12:14:12.312Z,54.28
2018-09-30T12:15:12.258Z,54.29
2018-09-30T12:16:12.256Z,54.42
2018-09-30T12:17:12.368Z,54.45
2018-09-30T12:18:12.272Z,54.49
2018-09-30T12:19:12.234Z,54.53
2018-09-30T12:20:12.393Z,54.58
2018-09-30T12:21:12.168Z,54.7
2018-09-30T12:22:12.297Z,54.7
2018-09-30T12:23:12.409Z,54.81
2018-09-30T12:24:12.383Z,54.8
2018-09-30T12:25:12.256Z,54.91
2018-09-30T12:26:12.448Z,54.86
2018-09-30T12:27:12.184Z,54.9
2018-09-30T12:28:12.176Z,54.99
2018-09-30T12:29:12.399Z,55.06
2018-09-30T12:30:12.054Z,55.04
2018-09-30T12:31:12.397Z,55.06
2018-09-30T12:32:12.210Z,55.06
2018-09-30T12:33:12.438Z,55.08
2018-09-30T12:34:12.762Z,55.1
2018-09-30T12:35:12.340Z,55.15
2018-09-30T12:36:12.434Z,55.25
2018-09-30T12:37:12.235Z,55.23
2018-09-30T12:38:12.276Z,55.21
2018-09-30T12:39:12.520Z,55.33
2018-09-30T12:40:12.358Z,55.35
2018-09-30T12:41:12.398Z,55.35
2018-09-30T12:42:12.513Z,55.42
2018-09-30T12:43:12.278Z,55.36
2018-09-30T12:44:12.429Z,55.39
2018-09-30T12:45:12.263Z,55.4
2018-09-30T12:46:12.292Z,55.42
2018-09-30T12:47:12.343Z,55.41
2018-09-30T12:48:12.492Z,55.29
2018-09-30T12:49:13.253Z,55.21
2018-09-30T12:50:12.252Z,55.18
2018-09-30T12:51:12.228Z,55.15
2018-09-30T12:52:12.370Z,55.17
2018-09-30T12:53:12.284Z,55.29
2018-09-30T12:54:12.246Z,55.32
2018-09-30T12:55:12.385Z,55.31
2018-09-30T12:59:49.236Z,55.16